sensor_id;sensor_type;location;lat;lon;timestamp;P1;durP1;ratioP1;P2;durP2;ratioP2
27313;SDS011;14800;48.174;9.798;2022-12-05T00:00:15;15.45;;;8.75;;
27313;SDS011;14800;48.174;9.798;2022-12-05T00:02:42;16.95;;;8.95;;
27313;SDS011;14800;48.174;9.798;2022-12-05T00:05:09;18.05;;;9.90;;
27313;SDS011;14800;48.174;9.798;2022-12-05T00:07:35;14.88;;;8.57;;
27313;SDS011;14800;48.174;9.798;2022-12-05T00:10:01;15.85;;;9.23;;
27313;SDS011;14800;48.174;9.798;2022-12-05T00:12:27;16.80;;;9.57;;
27313;SDS011;14800;48.174;9.798;2022-12-05T00:14:53;15.30;;;8.25;;
27313;SDS011;14800;48.174;9.798;2022-12-05T00:17:19;17.13;;;9.13;;
27313;SDS011;14800;48.174;9.798;2022-12-05T00:19:44;16.15;;;8.75;;
27313;SDS011;14800;48.174;9.798;2022-12-05T00:22:10;18.23;;;8.88;;
27313;SDS011;14800;48.174;9.798;2022-12-05T00:24:35;17.90;;;8.80;;
27313;SDS011;14800;48.174;9.798;2022-12-05T00:27:01;17.55;;;9.10;;
27313;SDS011;14800;48.174;9.798;2022-12-05T00:29:27;16.50;;;8.50;;
27313;SDS011;14800;48.174;9.798;2022-12-05T00:31:52;17.58;;;9.32;;
27313;SDS011;14800;48.174;9.798;2022-12-05T00:34:18;18.77;;;9.45;;
27313;SDS011;14800;48.174;9.798;2022-12-05T00:36:43;18.67;;;9.32;;
27313;SDS011;14800;48.174;9.798;2022-12-05T00:39:09;17.67;;;9.70;;
27313;SDS011;14800;48.174;9.798;2022-12-05T00:41:38;18.30;;;10.20;;
27313;SDS011;14800;48.174;9.798;2022-12-05T00:44:04;19.80;;;9.77;;
27313;SDS011;14800;48.174;9.798;2022-12-05T00:46:30;18.30;;;9.70;;
27313;SDS011;14800;48.174;9.798;2022-12-05T00:48:58;19.08;;;9.52;;
27313;SDS011;14800;48.174;9.798;2022-12-05T00:51:43;17.27;;;8.60;;
27313;SDS011;14800;48.174;9.798;2022-12-05T00:54:10;17.05;;;9.25;;
27313;SDS011;14800;48.174;9.798;2022-12-05T00:56:38;17.33;;;9.32;;
27313;SDS011;14800;48.174;9.798;2022-12-05T00:59:04;19.73;;;10.20;;
27313;SDS011;14800;48.174;9.798;2022-12-05T01:01:34;18.08;;;9.82;;
27313;SDS011;14800;48.174;9.798;2022-12-05T01:04:04;16.58;;;9.52;;
27313;SDS011;14800;48.174;9.798;2022-12-05T01:06:31;19.67;;;9.15;;
27313;SDS011;14800;48.174;9.798;2022-12-05T01:08:57;19.55;;;9.68;;
27313;SDS011;14800;48.174;9.798;2022-12-05T01:11:23;17.13;;;8.55;;
27313;SDS011;14800;48.174;9.798;2022-12-05T01:13:50;16.48;;;8.75;;
27313;SDS011;14800;48.174;9.798;2022-12-05T01:16:26;16.05;;;8.70;;
27313;SDS011;14800;48.174;9.798;2022-12-05T01:18:53;16.50;;;8.35;;
27313;SDS011;14800;48.174;9.798;2022-12-05T01:21:20;18.90;;;8.57;;
27313;SDS011;14800;48.174;9.798;2022-12-05T01:23:46;18.13;;;8.82;;
27313;SDS011;14800;48.174;9.798;2022-12-05T01:26:13;18.65;;;9.25;;
27313;SDS011;14800;48.174;9.798;2022-12-05T01:28:40;16.95;;;8.45;;
27313;SDS011;14800;48.174;9.798;2022-12-05T01:31:07;15.75;;;8.35;;
27313;SDS011;14800;48.174;9.798;2022-12-05T01:33:41;17.05;;;8.57;;
27313;SDS011;14800;48.174;9.798;2022-12-05T01:36:08;16.20;;;8.40;;
27313;SDS011;14800;48.174;9.798;2022-12-05T01:38:35;17.45;;;9.43;;
27313;SDS011;14800;48.174;9.798;2022-12-05T01:41:02;19.67;;;9.82;;
27313;SDS011;14800;48.174;9.798;2022-12-05T01:43:29;20.90;;;9.48;;
27313;SDS011;14800;48.174;9.798;2022-12-05T01:45:55;17.77;;;9.15;;
27313;SDS011;14800;48.174;9.798;2022-12-05T01:48:23;22.00;;;10.48;;
27313;SDS011;14800;48.174;9.798;2022-12-05T01:50:51;21.60;;;10.35;;
27313;SDS011;14800;48.174;9.798;2022-12-05T01:53:17;21.73;;;10.60;;
27313;SDS011;14800;48.174;9.798;2022-12-05T01:55:44;26.58;;;11.63;;
27313;SDS011;14800;48.174;9.798;2022-12-05T01:58:12;24.80;;;11.65;;
27313;SDS011;14800;48.174;9.798;2022-12-05T02:00:38;26.88;;;12.20;;
27313;SDS011;14800;48.174;9.798;2022-12-05T02:03:08;24.35;;;10.85;;
27313;SDS011;14800;48.174;9.798;2022-12-05T02:05:37;24.55;;;11.00;;
27313;SDS011;14800;48.174;9.798;2022-12-05T02:08:07;26.50;;;12.02;;
27313;SDS011;14800;48.174;9.798;2022-12-05T02:10:35;27.05;;;12.40;;
27313;SDS011;14800;48.174;9.798;2022-12-05T02:13:20;27.33;;;12.20;;
27313;SDS011;14800;48.174;9.798;2022-12-05T02:16:10;26.95;;;11.80;;
27313;SDS011;14800;48.174;9.798;2022-12-05T02:19:11;28.00;;;12.05;;
27313;SDS011;14800;48.174;9.798;2022-12-05T02:21:52;24.42;;;11.35;;
27313;SDS011;14800;48.174;9.798;2022-12-05T02:24:44;29.90;;;13.07;;
27313;SDS011;14800;48.174;9.798;2022-12-05T02:30:39;26.60;;;12.18;;
27313;SDS011;14800;48.174;9.798;2022-12-05T02:38:46;27.63;;;12.07;;
27313;SDS011;14800;48.174;9.798;2022-12-05T02:41:24;22.90;;;11.63;;
27313;SDS011;14800;48.174;9.798;2022-12-05T02:44:04;27.88;;;12.38;;
27313;SDS011;14800;48.174;9.798;2022-12-05T02:46:40;31.40;;;12.40;;
27313;SDS011;14800;48.174;9.798;2022-12-05T02:49:10;24.27;;;11.80;;
27313;SDS011;14800;48.174;9.798;2022-12-05T02:51:46;24.48;;;11.57;;
27313;SDS011;14800;48.174;9.798;2022-12-05T02:54:17;25.88;;;12.57;;
27313;SDS011;14800;48.174;9.798;2022-12-05T02:56:46;25.52;;;12.30;;
27313;SDS011;14800;48.174;9.798;2022-12-05T02:59:14;27.00;;;12.20;;
27313;SDS011;14800;48.174;9.798;2022-12-05T03:01:42;22.63;;;11.65;;
27313;SDS011;14800;48.174;9.798;2022-12-05T03:04:10;23.20;;;11.70;;
27313;SDS011;14800;48.174;9.798;2022-12-05T03:06:44;24.02;;;11.63;;
27313;SDS011;14800;48.174;9.798;2022-12-05T03:09:23;22.67;;;11.45;;
27313;SDS011;14800;48.174;9.798;2022-12-05T03:14:27;24.85;;;12.43;;
27313;SDS011;14800;48.174;9.798;2022-12-05T03:16:58;23.38;;;11.80;;
27313;SDS011;14800;48.174;9.798;2022-12-05T03:19:31;22.83;;;11.80;;
27313;SDS011;14800;48.174;9.798;2022-12-05T03:22:14;24.25;;;11.95;;
27313;SDS011;14800;48.174;9.798;2022-12-05T03:25:01;25.48;;;12.82;;
27313;SDS011;14800;48.174;9.798;2022-12-05T03:30:17;26.23;;;12.05;;
27313;SDS011;14800;48.174;9.798;2022-12-05T03:32:54;24.95;;;12.50;;
27313;SDS011;14800;48.174;9.798;2022-12-05T03:41:15;25.42;;;11.82;;
27313;SDS011;14800;48.174;9.798;2022-12-05T03:43:56;24.77;;;11.45;;
27313;SDS011;14800;48.174;9.798;2022-12-05T03:46:31;25.98;;;12.18;;
27313;SDS011;14800;48.174;9.798;2022-12-05T03:51:38;23.80;;;12.43;;
27313;SDS011;14800;48.174;9.798;2022-12-05T03:54:28;22.45;;;11.57;;
27313;SDS011;14800;48.174;9.798;2022-12-05T03:57:01;24.05;;;11.73;;
27313;SDS011;14800;48.174;9.798;2022-12-05T03:59:40;27.50;;;12.48;;
27313;SDS011;14800;48.174;9.798;2022-12-05T04:02:15;23.20;;;11.20;;
27313;SDS011;14800;48.174;9.798;2022-12-05T04:04:49;20.58;;;11.63;;
27313;SDS011;14800;48.174;9.798;2022-12-05T04:07:26;22.08;;;11.70;;
27313;SDS011;14800;48.174;9.798;2022-12-05T04:09:56;22.20;;;11.90;;
27313;SDS011;14800;48.174;9.798;2022-12-05T04:12:27;24.80;;;11.85;;
27313;SDS011;14800;48.174;9.798;2022-12-05T04:15:18;24.83;;;12.75;;
27313;SDS011;14800;48.174;9.798;2022-12-05T04:20:20;25.65;;;13.75;;
27313;SDS011;14800;48.174;9.798;2022-12-05T04:23:09;23.90;;;13.18;;
27313;SDS011;14800;48.174;9.798;2022-12-05T04:25:36;22.92;;;12.45;;
27313;SDS011;14800;48.174;9.798;2022-12-05T04:28:33;30.02;;;15.63;;
27313;SDS011;14800;48.174;9.798;2022-12-05T04:31:07;24.45;;;12.60;;
27313;SDS011;14800;48.174;9.798;2022-12-05T04:33:41;25.02;;;12.75;;
27313;SDS011;14800;48.174;9.798;2022-12-05T04:38:41;22.83;;;12.25;;
27313;SDS011;14800;48.174;9.798;2022-12-05T04:41:15;24.08;;;12.13;;
27313;SDS011;14800;48.174;9.798;2022-12-05T04:43:45;22.48;;;12.18;;
27313;SDS011;14800;48.174;9.798;2022-12-05T04:46:13;21.67;;;11.93;;
27313;SDS011;14800;48.174;9.798;2022-12-05T04:48:41;22.52;;;11.27;;
27313;SDS011;14800;48.174;9.798;2022-12-05T04:51:12;23.17;;;12.13;;
27313;SDS011;14800;48.174;9.798;2022-12-05T04:53:48;23.77;;;11.52;;
27313;SDS011;14800;48.174;9.798;2022-12-05T04:56:19;24.15;;;12.43;;
27313;SDS011;14800;48.174;9.798;2022-12-05T04:58:47;27.17;;;13.15;;
27313;SDS011;14800;48.174;9.798;2022-12-05T05:01:14;23.70;;;11.85;;
27313;SDS011;14800;48.174;9.798;2022-12-05T05:03:53;25.02;;;12.30;;
27313;SDS011;14800;48.174;9.798;2022-12-05T05:06:19;24.77;;;12.98;;
27313;SDS011;14800;48.174;9.798;2022-12-05T05:08:46;30.05;;;15.50;;
27313;SDS011;14800;48.174;9.798;2022-12-05T05:11:21;24.02;;;12.50;;
27313;SDS011;14800;48.174;9.798;2022-12-05T05:13:52;29.05;;;15.05;;
27313;SDS011;14800;48.174;9.798;2022-12-05T05:16:25;27.83;;;14.30;;
27313;SDS011;14800;48.174;9.798;2022-12-05T05:18:53;24.15;;;12.60;;
27313;SDS011;14800;48.174;9.798;2022-12-05T05:21:20;25.00;;;12.95;;
27313;SDS011;14800;48.174;9.798;2022-12-05T05:23:56;23.42;;;11.95;;
27313;SDS011;14800;48.174;9.798;2022-12-05T05:26:22;21.98;;;12.45;;
27313;SDS011;14800;48.174;9.798;2022-12-05T05:28:49;24.83;;;14.30;;
27313;SDS011;14800;48.174;9.798;2022-12-05T05:31:15;24.73;;;12.98;;
27313;SDS011;14800;48.174;9.798;2022-12-05T05:33:41;25.42;;;14.15;;
27313;SDS011;14800;48.174;9.798;2022-12-05T05:38:35;29.45;;;15.60;;
27313;SDS011;14800;48.174;9.798;2022-12-05T05:41:02;23.98;;;13.27;;
27313;SDS011;14800;48.174;9.798;2022-12-05T05:43:28;22.95;;;12.77;;
27313;SDS011;14800;48.174;9.798;2022-12-05T05:45:54;27.35;;;13.63;;
27313;SDS011;14800;48.174;9.798;2022-12-05T05:48:20;24.58;;;13.13;;
27313;SDS011;14800;48.174;9.798;2022-12-05T05:50:45;24.38;;;13.50;;
27313;SDS011;14800;48.174;9.798;2022-12-05T05:53:11;24.55;;;13.27;;
27313;SDS011;14800;48.174;9.798;2022-12-05T05:55:40;27.38;;;14.05;;
27313;SDS011;14800;48.174;9.798;2022-12-05T05:58:05;22.52;;;12.57;;
27313;SDS011;14800;48.174;9.798;2022-12-05T06:00:32;22.17;;;12.35;;
27313;SDS011;14800;48.174;9.798;2022-12-05T06:02:57;31.95;;;12.57;;
27313;SDS011;14800;48.174;9.798;2022-12-05T06:05:23;22.40;;;12.57;;
27313;SDS011;14800;48.174;9.798;2022-12-05T06:07:49;25.52;;;12.82;;
27313;SDS011;14800;48.174;9.798;2022-12-05T06:10:17;24.83;;;13.07;;
27313;SDS011;14800;48.174;9.798;2022-12-05T06:12:42;24.40;;;12.75;;
27313;SDS011;14800;48.174;9.798;2022-12-05T06:15:08;22.13;;;12.70;;
27313;SDS011;14800;48.174;9.798;2022-12-05T06:17:34;22.67;;;12.18;;
27313;SDS011;14800;48.174;9.798;2022-12-05T06:20:00;24.20;;;12.88;;
27313;SDS011;14800;48.174;9.798;2022-12-05T06:22:25;24.58;;;12.10;;
27313;SDS011;14800;48.174;9.798;2022-12-05T06:24:51;24.05;;;13.02;;
27313;SDS011;14800;48.174;9.798;2022-12-05T06:27:16;21.80;;;12.10;;
27313;SDS011;14800;48.174;9.798;2022-12-05T06:29:42;22.88;;;12.95;;
27313;SDS011;14800;48.174;9.798;2022-12-05T06:32:07;24.30;;;12.90;;
27313;SDS011;14800;48.174;9.798;2022-12-05T06:34:33;24.40;;;12.40;;
27313;SDS011;14800;48.174;9.798;2022-12-05T06:36:59;24.55;;;13.35;;
27313;SDS011;14800;48.174;9.798;2022-12-05T06:39:25;25.90;;;13.90;;
27313;SDS011;14800;48.174;9.798;2022-12-05T06:41:51;23.15;;;13.13;;
27313;SDS011;14800;48.174;9.798;2022-12-05T06:44:16;24.35;;;13.18;;
27313;SDS011;14800;48.174;9.798;2022-12-05T06:46:42;23.80;;;12.73;;
27313;SDS011;14800;48.174;9.798;2022-12-05T06:49:08;24.48;;;13.20;;
27313;SDS011;14800;48.174;9.798;2022-12-05T06:51:35;24.45;;;13.60;;
27313;SDS011;14800;48.174;9.798;2022-12-05T06:54:00;24.73;;;13.63;;
27313;SDS011;14800;48.174;9.798;2022-12-05T06:56:26;25.83;;;13.27;;
27313;SDS011;14800;48.174;9.798;2022-12-05T06:58:53;25.00;;;14.02;;
27313;SDS011;14800;48.174;9.798;2022-12-05T07:01:20;23.83;;;13.57;;
27313;SDS011;14800;48.174;9.798;2022-12-05T07:04:16;23.67;;;13.40;;
27313;SDS011;14800;48.174;9.798;2022-12-05T07:06:48;23.00;;;13.35;;
27313;SDS011;14800;48.174;9.798;2022-12-05T07:09:18;25.00;;;13.73;;
27313;SDS011;14800;48.174;9.798;2022-12-05T07:11:46;23.95;;;12.63;;
27313;SDS011;14800;48.174;9.798;2022-12-05T07:14:13;22.75;;;13.55;;
27313;SDS011;14800;48.174;9.798;2022-12-05T07:16:38;24.15;;;12.80;;
27313;SDS011;14800;48.174;9.798;2022-12-05T07:19:04;23.77;;;12.65;;
27313;SDS011;14800;48.174;9.798;2022-12-05T07:21:30;23.17;;;12.93;;
27313;SDS011;14800;48.174;9.798;2022-12-05T07:23:55;23.95;;;13.68;;
27313;SDS011;14800;48.174;9.798;2022-12-05T07:26:22;23.10;;;13.48;;
27313;SDS011;14800;48.174;9.798;2022-12-05T07:28:48;23.75;;;13.02;;
27313;SDS011;14800;48.174;9.798;2022-12-05T07:31:16;25.13;;;14.27;;
27313;SDS011;14800;48.174;9.798;2022-12-05T07:33:47;24.42;;;14.30;;
27313;SDS011;14800;48.174;9.798;2022-12-05T07:36:14;25.42;;;13.75;;
27313;SDS011;14800;48.174;9.798;2022-12-05T07:38:41;22.75;;;12.90;;
27313;SDS011;14800;48.174;9.798;2022-12-05T07:41:09;24.30;;;13.73;;
27313;SDS011;14800;48.174;9.798;2022-12-05T07:43:38;25.13;;;12.30;;
27313;SDS011;14800;48.174;9.798;2022-12-05T07:46:04;22.42;;;13.25;;
27313;SDS011;14800;48.174;9.798;2022-12-05T07:48:31;22.52;;;11.70;;
27313;SDS011;14800;48.174;9.798;2022-12-05T07:51:01;22.85;;;11.45;;
27313;SDS011;14800;48.174;9.798;2022-12-05T07:53:29;20.67;;;11.85;;
27313;SDS011;14800;48.174;9.798;2022-12-05T07:55:57;19.95;;;11.52;;
27313;SDS011;14800;48.174;9.798;2022-12-05T07:58:24;20.38;;;11.82;;
27313;SDS011;14800;48.174;9.798;2022-12-05T08:00:50;20.20;;;11.90;;
27313;SDS011;14800;48.174;9.798;2022-12-05T08:03:15;18.92;;;11.52;;
27313;SDS011;14800;48.174;9.798;2022-12-05T08:05:41;19.27;;;11.63;;
27313;SDS011;14800;48.174;9.798;2022-12-05T08:08:07;16.85;;;11.00;;
27313;SDS011;14800;48.174;9.798;2022-12-05T08:10:33;19.27;;;11.32;;
27313;SDS011;14800;48.174;9.798;2022-12-05T08:12:59;18.60;;;11.10;;
27313;SDS011;14800;48.174;9.798;2022-12-05T08:15:25;20.38;;;11.68;;
27313;SDS011;14800;48.174;9.798;2022-12-05T08:17:50;16.92;;;10.43;;
27313;SDS011;14800;48.174;9.798;2022-12-05T08:20:16;16.80;;;10.15;;
27313;SDS011;14800;48.174;9.798;2022-12-05T08:22:41;19.60;;;11.13;;
27313;SDS011;14800;48.174;9.798;2022-12-05T08:25:07;19.55;;;9.95;;
27313;SDS011;14800;48.174;9.798;2022-12-05T08:27:33;18.92;;;10.25;;
27313;SDS011;14800;48.174;9.798;2022-12-05T08:29:59;18.75;;;10.10;;
27313;SDS011;14800;48.174;9.798;2022-12-05T08:32:25;16.15;;;10.13;;
27313;SDS011;14800;48.174;9.798;2022-12-05T08:34:51;16.38;;;9.70;;
27313;SDS011;14800;48.174;9.798;2022-12-05T08:37:18;15.77;;;9.93;;
27313;SDS011;14800;48.174;9.798;2022-12-05T08:39:43;15.77;;;9.95;;
27313;SDS011;14800;48.174;9.798;2022-12-05T08:42:09;16.35;;;9.98;;
27313;SDS011;14800;48.174;9.798;2022-12-05T08:44:34;14.43;;;8.88;;
27313;SDS011;14800;48.174;9.798;2022-12-05T08:47:00;16.30;;;9.75;;
27313;SDS011;14800;48.174;9.798;2022-12-05T08:49:26;13.45;;;8.65;;
27313;SDS011;14800;48.174;9.798;2022-12-05T08:51:52;16.02;;;8.85;;
27313;SDS011;14800;48.174;9.798;2022-12-05T08:54:18;14.20;;;8.45;;
27313;SDS011;14800;48.174;9.798;2022-12-05T08:56:44;11.95;;;7.93;;
27313;SDS011;14800;48.174;9.798;2022-12-05T08:59:09;14.55;;;8.45;;
27313;SDS011;14800;48.174;9.798;2022-12-05T09:01:35;12.73;;;8.15;;
27313;SDS011;14800;48.174;9.798;2022-12-05T09:04:03;16.00;;;7.93;;
27313;SDS011;14800;48.174;9.798;2022-12-05T09:06:29;14.52;;;7.85;;
27313;SDS011;14800;48.174;9.798;2022-12-05T09:08:57;14.60;;;7.68;;
27313;SDS011;14800;48.174;9.798;2022-12-05T09:11:26;12.10;;;7.47;;
27313;SDS011;14800;48.174;9.798;2022-12-05T09:13:54;13.32;;;7.60;;
27313;SDS011;14800;48.174;9.798;2022-12-05T09:16:31;12.02;;;7.05;;
27313;SDS011;14800;48.174;9.798;2022-12-05T09:18:59;10.60;;;6.07;;
27313;SDS011;14800;48.174;9.798;2022-12-05T09:21:26;8.07;;;5.50;;
27313;SDS011;14800;48.174;9.798;2022-12-05T09:23:59;8.10;;;5.10;;
27313;SDS011;14800;48.174;9.798;2022-12-05T09:26:25;7.13;;;5.07;;
27313;SDS011;14800;48.174;9.798;2022-12-05T09:28:52;7.97;;;4.57;;
27313;SDS011;14800;48.174;9.798;2022-12-05T09:31:19;6.60;;;4.47;;
27313;SDS011;14800;48.174;9.798;2022-12-05T09:33:47;6.88;;;4.47;;
27313;SDS011;14800;48.174;9.798;2022-12-05T09:36:15;5.50;;;3.88;;
27313;SDS011;14800;48.174;9.798;2022-12-05T09:38:45;5.68;;;4.05;;
27313;SDS011;14800;48.174;9.798;2022-12-05T09:49:50;4.72;;;3.30;;
27313;SDS011;14800;48.174;9.798;2022-12-05T09:52:32;4.57;;;3.28;;
27313;SDS011;14800;48.174;9.798;2022-12-05T09:55:03;4.55;;;3.20;;
27313;SDS011;14800;48.174;9.798;2022-12-05T09:57:51;3.08;;;2.63;;
27313;SDS011;14800;48.174;9.798;2022-12-05T10:00:21;4.47;;;2.85;;
27313;SDS011;14800;48.174;9.798;2022-12-05T10:02:51;3.30;;;2.78;;
27313;SDS011;14800;48.174;9.798;2022-12-05T10:05:21;3.38;;;2.80;;
27313;SDS011;14800;48.174;9.798;2022-12-05T10:10:39;3.10;;;2.33;;
27313;SDS011;14800;48.174;9.798;2022-12-05T10:16:10;2.90;;;2.30;;
27313;SDS011;14800;48.174;9.798;2022-12-05T10:24:04;3.58;;;2.60;;
27313;SDS011;14800;48.174;9.798;2022-12-05T10:26:44;3.13;;;2.20;;
27313;SDS011;14800;48.174;9.798;2022-12-05T10:29:32;2.72;;;2.28;;
27313;SDS011;14800;48.174;9.798;2022-12-05T10:32:09;3.25;;;2.22;;
27313;SDS011;14800;48.174;9.798;2022-12-05T10:34:44;2.40;;;2.05;;
27313;SDS011;14800;48.174;9.798;2022-12-05T10:37:17;2.33;;;2.05;;
27313;SDS011;14800;48.174;9.798;2022-12-05T10:39:43;7.43;;;4.78;;
27313;SDS011;14800;48.174;9.798;2022-12-05T10:42:11;11.18;;;9.25;;
27313;SDS011;14800;48.174;9.798;2022-12-05T10:44:40;4.85;;;4.32;;
27313;SDS011;14800;48.174;9.798;2022-12-05T10:47:05;4.63;;;3.70;;
27313;SDS011;14800;48.174;9.798;2022-12-05T10:49:32;6.40;;;3.38;;
27313;SDS011;14800;48.174;9.798;2022-12-05T10:51:58;5.70;;;3.75;;
27313;SDS011;14800;48.174;9.798;2022-12-05T10:54:25;5.60;;;3.80;;
27313;SDS011;14800;48.174;9.798;2022-12-05T10:56:53;3.97;;;3.30;;
27313;SDS011;14800;48.174;9.798;2022-12-05T10:59:20;2.35;;;2.13;;
27313;SDS011;14800;48.174;9.798;2022-12-05T11:01:49;5.50;;;2.65;;
27313;SDS011;14800;48.174;9.798;2022-12-05T11:06:56;5.10;;;3.80;;
27313;SDS011;14800;48.174;9.798;2022-12-05T11:09:28;3.33;;;2.70;;
27313;SDS011;14800;48.174;9.798;2022-12-05T11:12:00;3.47;;;3.13;;
27313;SDS011;14800;48.174;9.798;2022-12-05T11:14:27;3.50;;;3.10;;
27313;SDS011;14800;48.174;9.798;2022-12-05T11:16:57;3.97;;;2.65;;
27313;SDS011;14800;48.174;9.798;2022-12-05T11:19:29;11.45;;;6.78;;
27313;SDS011;14800;48.174;9.798;2022-12-05T11:21:57;18.70;;;12.23;;
27313;SDS011;14800;48.174;9.798;2022-12-05T11:26:52;16.05;;;11.05;;
27313;SDS011;14800;48.174;9.798;2022-12-05T11:31:58;62.40;;;32.70;;
27313;SDS011;14800;48.174;9.798;2022-12-05T11:34:38;13.55;;;9.43;;
27313;SDS011;14800;48.174;9.798;2022-12-05T11:37:12;9.02;;;6.35;;
27313;SDS011;14800;48.174;9.798;2022-12-05T11:39:43;8.63;;;6.13;;
27313;SDS011;14800;48.174;9.798;2022-12-05T11:45:26;9.38;;;6.28;;
27313;SDS011;14800;48.174;9.798;2022-12-05T11:50:39;9.30;;;7.03;;
27313;SDS011;14800;48.174;9.798;2022-12-05T12:04:18;6.45;;;4.63;;
27313;SDS011;14800;48.174;9.798;2022-12-05T12:09:47;6.15;;;4.78;;
27313;SDS011;14800;48.174;9.798;2022-12-05T12:20:26;4.60;;;3.47;;
27313;SDS011;14800;48.174;9.798;2022-12-05T12:28:38;5.03;;;3.03;;
27313;SDS011;14800;48.174;9.798;2022-12-05T12:33:49;3.42;;;2.90;;
27313;SDS011;14800;48.174;9.798;2022-12-05T12:42:01;2.60;;;2.40;;
27313;SDS011;14800;48.174;9.798;2022-12-05T12:47:39;4.68;;;2.42;;
27313;SDS011;14800;48.174;9.798;2022-12-05T12:50:39;6.20;;;2.58;;
27313;SDS011;14800;48.174;9.798;2022-12-05T12:56:38;2.60;;;2.40;;
27313;SDS011;14800;48.174;9.798;2022-12-05T13:01:11;3.05;;;2.80;;
27313;SDS011;14800;48.174;9.798;2022-12-05T13:03:50;3.42;;;2.30;;
27313;SDS011;14800;48.174;9.798;2022-12-05T13:09:35;12.52;;;7.30;;
27313;SDS011;14800;48.174;9.798;2022-12-05T13:12:21;5.20;;;3.95;;
27313;SDS011;14800;48.174;9.798;2022-12-05T13:14:52;2.70;;;2.15;;
27313;SDS011;14800;48.174;9.798;2022-12-05T13:17:35;3.10;;;2.13;;
27313;SDS011;14800;48.174;9.798;2022-12-05T13:20:06;2.40;;;1.90;;
27313;SDS011;14800;48.174;9.798;2022-12-05T13:22:40;4.00;;;2.03;;
27313;SDS011;14800;48.174;9.798;2022-12-05T13:25:06;2.60;;;1.83;;
27313;SDS011;14800;48.174;9.798;2022-12-05T13:27:37;3.80;;;1.73;;
27313;SDS011;14800;48.174;9.798;2022-12-05T13:30:03;8.10;;;3.42;;
27313;SDS011;14800;48.174;9.798;2022-12-05T13:35:09;3.00;;;2.30;;
27313;SDS011;14800;48.174;9.798;2022-12-05T13:37:44;9.45;;;5.32;;
27313;SDS011;14800;48.174;9.798;2022-12-05T13:40:31;3.35;;;2.80;;
27313;SDS011;14800;48.174;9.798;2022-12-05T13:43:22;7.72;;;4.63;;
27313;SDS011;14800;48.174;9.798;2022-12-05T13:45:58;11.48;;;6.45;;
27313;SDS011;14800;48.174;9.798;2022-12-05T13:48:39;4.90;;;2.85;;
27313;SDS011;14800;48.174;9.798;2022-12-05T13:51:09;10.70;;;6.38;;
27313;SDS011;14800;48.174;9.798;2022-12-05T13:53:42;6.30;;;3.28;;
27313;SDS011;14800;48.174;9.798;2022-12-05T14:03:58;7.82;;;3.70;;
27313;SDS011;14800;48.174;9.798;2022-12-05T14:17:25;12.40;;;5.22;;
27313;SDS011;14800;48.174;9.798;2022-12-05T14:28:11;9.05;;;4.50;;
27313;SDS011;14800;48.174;9.798;2022-12-05T14:33:39;8.68;;;3.47;;
27313;SDS011;14800;48.174;9.798;2022-12-05T14:36:06;8.73;;;4.45;;
27313;SDS011;14800;48.174;9.798;2022-12-05T14:38:37;20.10;;;6.95;;
27313;SDS011;14800;48.174;9.798;2022-12-05T14:41:13;13.23;;;4.97;;
27313;SDS011;14800;48.174;9.798;2022-12-05T14:43:39;10.68;;;5.75;;
27313;SDS011;14800;48.174;9.798;2022-12-05T14:46:07;30.55;;;13.68;;
27313;SDS011;14800;48.174;9.798;2022-12-05T14:52:18;11.52;;;5.80;;
27313;SDS011;14800;48.174;9.798;2022-12-05T14:54:53;13.80;;;6.63;;
27313;SDS011;14800;48.174;9.798;2022-12-05T14:57:24;12.00;;;7.35;;
27313;SDS011;14800;48.174;9.798;2022-12-05T14:59:51;7.85;;;5.63;;
27313;SDS011;14800;48.174;9.798;2022-12-05T15:02:30;8.93;;;5.70;;
27313;SDS011;14800;48.174;9.798;2022-12-05T15:05:17;5.82;;;3.92;;
27313;SDS011;14800;48.174;9.798;2022-12-05T15:07:54;3.83;;;2.77;;
27313;SDS011;14800;48.174;9.798;2022-12-05T15:10:31;7.65;;;4.85;;
27313;SDS011;14800;48.174;9.798;2022-12-05T15:13:03;7.15;;;4.40;;
27313;SDS011;14800;48.174;9.798;2022-12-05T15:15:42;15.48;;;7.25;;
27313;SDS011;14800;48.174;9.798;2022-12-05T15:18:20;7.78;;;6.13;;
27313;SDS011;14800;48.174;9.798;2022-12-05T15:37:03;7.22;;;3.10;;
27313;SDS011;14800;48.174;9.798;2022-12-05T15:42:23;6.75;;;3.40;;
27313;SDS011;14800;48.174;9.798;2022-12-05T15:45:36;6.85;;;3.58;;
27313;SDS011;14800;48.174;9.798;2022-12-05T15:50:39;2.65;;;2.40;;
27313;SDS011;14800;48.174;9.798;2022-12-05T15:53:15;6.40;;;3.50;;
27313;SDS011;14800;48.174;9.798;2022-12-05T15:55:49;6.30;;;4.20;;
27313;SDS011;14800;48.174;9.798;2022-12-05T15:58:27;9.52;;;4.63;;
27313;SDS011;14800;48.174;9.798;2022-12-05T16:00:59;7.53;;;5.00;;
27313;SDS011;14800;48.174;9.798;2022-12-05T16:03:35;10.85;;;6.57;;
27313;SDS011;14800;48.174;9.798;2022-12-05T16:09:06;11.15;;;5.63;;
27313;SDS011;14800;48.174;9.798;2022-12-05T16:11:37;10.73;;;6.70;;
27313;SDS011;14800;48.174;9.798;2022-12-05T16:14:04;8.60;;;4.80;;
27313;SDS011;14800;48.174;9.798;2022-12-05T16:16:32;7.60;;;6.78;;
27313;SDS011;14800;48.174;9.798;2022-12-05T16:19:20;13.23;;;10.05;;
27313;SDS011;14800;48.174;9.798;2022-12-05T16:22:06;13.30;;;11.30;;
27313;SDS011;14800;48.174;9.798;2022-12-05T16:24:39;14.60;;;10.63;;
27313;SDS011;14800;48.174;9.798;2022-12-05T16:27:25;11.48;;;8.65;;
27313;SDS011;14800;48.174;9.798;2022-12-05T16:32:49;9.10;;;5.70;;
27313;SDS011;14800;48.174;9.798;2022-12-05T16:35:39;10.48;;;7.68;;
27313;SDS011;14800;48.174;9.798;2022-12-05T16:38:13;9.40;;;6.10;;
27313;SDS011;14800;48.174;9.798;2022-12-05T16:45:52;11.77;;;6.38;;
27313;SDS011;14800;48.174;9.798;2022-12-05T16:48:28;17.90;;;9.90;;
27313;SDS011;14800;48.174;9.798;2022-12-05T16:53:46;12.00;;;6.40;;
27313;SDS011;14800;48.174;9.798;2022-12-05T16:56:23;7.93;;;4.80;;
27313;SDS011;14800;48.174;9.798;2022-12-05T16:58:49;8.38;;;5.00;;
27313;SDS011;14800;48.174;9.798;2022-12-05T17:01:16;7.07;;;4.60;;
27313;SDS011;14800;48.174;9.798;2022-12-05T17:03:43;8.15;;;5.00;;
27313;SDS011;14800;48.174;9.798;2022-12-05T17:06:09;8.93;;;5.70;;
27313;SDS011;14800;48.174;9.798;2022-12-05T17:08:35;6.63;;;5.03;;
27313;SDS011;14800;48.174;9.798;2022-12-05T17:11:01;7.93;;;5.15;;
27313;SDS011;14800;48.174;9.798;2022-12-05T17:13:27;7.85;;;5.80;;
27313;SDS011;14800;48.174;9.798;2022-12-05T17:15:54;12.90;;;6.25;;
27313;SDS011;14800;48.174;9.798;2022-12-05T17:18:20;9.82;;;6.43;;
27313;SDS011;14800;48.174;9.798;2022-12-05T17:20:47;13.27;;;7.45;;
27313;SDS011;14800;48.174;9.798;2022-12-05T17:23:17;12.88;;;7.47;;
27313;SDS011;14800;48.174;9.798;2022-12-05T17:25:45;10.60;;;7.00;;
27313;SDS011;14800;48.174;9.798;2022-12-05T17:28:14;10.55;;;6.55;;
27313;SDS011;14800;48.174;9.798;2022-12-05T17:30:40;9.13;;;7.10;;
27313;SDS011;14800;48.174;9.798;2022-12-05T17:33:08;11.23;;;6.65;;
27313;SDS011;14800;48.174;9.798;2022-12-05T17:35:35;9.85;;;6.35;;
27313;SDS011;14800;48.174;9.798;2022-12-05T17:38:02;35.42;;;19.98;;
27313;SDS011;14800;48.174;9.798;2022-12-05T17:40:28;43.78;;;24.70;;
27313;SDS011;14800;48.174;9.798;2022-12-05T17:42:54;29.00;;;14.73;;
27313;SDS011;14800;48.174;9.798;2022-12-05T17:45:22;19.73;;;11.43;;
27313;SDS011;14800;48.174;9.798;2022-12-05T17:47:48;23.77;;;14.23;;
27313;SDS011;14800;48.174;9.798;2022-12-05T17:50:14;14.30;;;9.02;;
27313;SDS011;14800;48.174;9.798;2022-12-05T17:52:42;9.38;;;6.45;;
27313;SDS011;14800;48.174;9.798;2022-12-05T17:55:18;8.52;;;5.65;;